createdAt,value
2019-04-19T00:00:37.106Z,12.37
2019-04-19T00:03:06.678Z,9.13
2019-04-19T00:05:52.477Z,9.40
2019-04-19T00:08:37.301Z,10.10
2019-04-19T00:11:06.522Z,11.03
2019-04-19T00:13:24.059Z,10.83
2019-04-19T00:15:53.959Z,11.90
2019-04-19T00:18:24.563Z,10.20
2019-04-19T00:21:13.676Z,10.80
2019-04-19T00:23:33.131Z,12.10
2019-04-19T00:25:56.144Z,10.67
2019-04-19T00:28:35.430Z,10.87
2019-04-19T00:31:13.397Z,10.83
2019-04-19T00:33:34.458Z,11.03
2019-04-19T00:36:02.591Z,10.20
2019-04-19T00:38:45.579Z,10.40
2019-04-19T00:41:35.836Z,10.20
2019-04-19T00:44:14.909Z,9.83
2019-04-19T00:46:53.887Z,9.60
2019-04-19T00:49:13.369Z,10.00
2019-04-19T00:51:51.641Z,9.47
2019-04-19T00:54:13.021Z,9.43
2019-04-19T00:56:46.710Z,10.03
2019-04-19T00:59:10.097Z,9.90
2019-04-19T01:01:37.514Z,9.70
2019-04-19T01:04:13.724Z,10.17
2019-04-19T01:06:43.883Z,9.60
2019-04-19T01:09:27.895Z,10.30
2019-04-19T01:11:55.639Z,8.80
2019-04-19T01:14:26.976Z,9.57
2019-04-19T01:16:54.891Z,10.17
2019-04-19T01:19:17.540Z,10.67
2019-04-19T01:21:44.963Z,9.33
2019-04-19T01:24:17.971Z,10.13
2019-04-19T01:26:48.702Z,10.30
2019-04-19T01:29:19.390Z,9.60
2019-04-19T01:31:54.526Z,9.60
2019-04-19T01:34:24.879Z,11.03
2019-04-19T01:36:52.681Z,10.70
2019-04-19T01:39:36.545Z,10.23
2019-04-19T01:42:04.523Z,10.37
2019-04-19T01:44:47.461Z,10.53
2019-04-19T01:47:34.627Z,11.87
2019-04-19T01:50:13.236Z,11.60
2019-04-19T01:52:55.893Z,10.67
2019-04-19T01:55:10.057Z,10.73
2019-04-19T01:57:32.450Z,11.23
2019-04-19T02:00:03.875Z,11.70
2019-04-19T02:02:37.845Z,10.87
2019-04-19T02:05:09.775Z,10.80
2019-04-19T02:07:36.199Z,11.10
2019-04-19T02:10:22.800Z,12.30
2019-04-19T02:12:52.732Z,12.53
2019-04-19T02:15:24.637Z,10.77
2019-04-19T02:17:48.321Z,11.67
2019-04-19T02:20:17.027Z,12.27
2019-04-19T02:22:48.574Z,12.50
2019-04-19T02:25:21.808Z,11.70
2019-04-19T02:27:50.448Z,12.83
2019-04-19T02:30:31.371Z,11.57
2019-04-19T02:33:15.354Z,11.48
2019-04-19T02:35:51.208Z,10.90
2019-04-19T02:38:24.944Z,10.57
2019-04-19T02:43:32.088Z,13.23
2019-04-19T02:46:09.848Z,11.40
2019-04-19T02:48:29.575Z,11.77
2019-04-19T02:53:30.062Z,10.80
2019-04-19T02:56:05.296Z,12.10
2019-04-19T02:58:33.853Z,10.60
2019-04-19T03:01:18.693Z,10.77
2019-04-19T03:03:39.775Z,11.07
2019-04-19T03:06:08.985Z,10.80
2019-04-19T03:08:22.900Z,10.20
2019-04-19T03:11:03.148Z,11.43
2019-04-19T03:13:41.248Z,11.03
2019-04-19T03:16:11.781Z,11.30
2019-04-19T03:18:42.378Z,11.93
2019-04-19T03:21:08.351Z,11.03
2019-04-19T03:23:41.352Z,11.27
2019-04-19T03:26:17.129Z,10.67
2019-04-19T03:28:38.720Z,10.10
2019-04-19T03:33:59.545Z,11.37
2019-04-19T03:36:22.121Z,11.60
2019-04-19T03:38:48.433Z,10.57
2019-04-19T03:41:40.788Z,11.33
2019-04-19T03:44:25.365Z,9.70
2019-04-19T03:47:04.914Z,10.60
2019-04-19T03:54:31.514Z,9.60
2019-04-19T03:57:02.739Z,9.53
2019-04-19T03:59:16.216Z,9.40
2019-04-19T04:01:51.012Z,10.03
2019-04-19T04:04:22.266Z,10.23
2019-04-19T04:06:49.008Z,9.33
2019-04-19T04:09:39.981Z,10.93
2019-04-19T04:12:40.532Z,9.00
2019-04-19T04:15:38.369Z,9.90
2019-04-19T04:17:52.481Z,9.95
2019-04-19T04:20:22.185Z,10.00
2019-04-19T04:22:55.594Z,9.10
2019-04-19T04:25:28.300Z,9.70
2019-04-19T04:28:05.074Z,11.03
2019-04-19T04:30:31.664Z,10.50
2019-04-19T04:33:05.247Z,9.23
2019-04-19T04:35:41.395Z,10.00
2019-04-19T04:38:09.189Z,10.67
2019-04-19T04:40:29.708Z,10.37
2019-04-19T04:43:15.041Z,9.30
2019-04-19T04:46:01.843Z,9.93
2019-04-19T04:48:40.126Z,10.40
2019-04-19T04:51:26.022Z,9.57
2019-04-19T04:53:42.801Z,10.13
2019-04-19T04:56:17.181Z,10.10
2019-04-19T04:58:49.068Z,10.93
2019-04-19T05:01:29.040Z,10.10
2019-04-19T05:04:08.970Z,10.33
2019-04-19T05:06:34.907Z,10.40
2019-04-19T05:09:10.708Z,9.70
2019-04-19T05:11:37.698Z,10.30
2019-04-19T05:14:14.150Z,10.97
2019-04-19T05:16:53.701Z,11.13
2019-04-19T05:19:19.826Z,11.40
2019-04-19T05:21:46.295Z,10.90
2019-04-19T05:24:20.992Z,10.93
2019-04-19T05:27:04.746Z,10.47
2019-04-19T05:29:18.741Z,11.00
2019-04-19T05:31:41.223Z,10.03
2019-04-19T05:34:28.109Z,12.17
2019-04-19T05:36:55.228Z,10.60
2019-04-19T05:39:46.178Z,12.60
2019-04-19T05:42:33.082Z,10.97
2019-04-19T05:45:20.644Z,9.97
2019-04-19T05:47:31.045Z,12.40
2019-04-19T05:50:07.510Z,10.70
2019-04-19T05:52:39.435Z,11.87
2019-04-19T05:54:49.851Z,11.70
2019-04-19T05:57:35.960Z,10.73
2019-04-19T05:59:59.749Z,14.27
2019-04-19T06:02:28.502Z,12.80
2019-04-19T06:05:18.854Z,11.20
2019-04-19T06:07:41.782Z,12.23
2019-04-19T06:09:55.924Z,11.10
2019-04-19T06:12:29.942Z,11.10
2019-04-19T06:15:17.798Z,11.87
2019-04-19T06:18:09.816Z,11.37
2019-04-19T06:20:44.380Z,12.40
2019-04-19T06:23:12.995Z,11.20
2019-04-19T06:26:04.765Z,11.20
2019-04-19T06:28:25.990Z,12.00
2019-04-19T06:30:50.563Z,14.03
2019-04-19T06:33:21.561Z,13.50
2019-04-19T06:35:43.848Z,12.57
2019-04-19T06:38:07.434Z,12.50
2019-04-19T06:40:39.498Z,10.57
2019-04-19T06:43:13.872Z,13.00
2019-04-19T06:45:55.596Z,11.03
2019-04-19T06:48:16.225Z,12.70
2019-04-19T06:50:44.833Z,13.37
2019-04-19T06:53:12.688Z,13.23
2019-04-19T06:55:47.366Z,11.57
2019-04-19T06:58:20.433Z,12.83
2019-04-19T07:00:59.519Z,13.27
2019-04-19T07:03:16.114Z,13.30
2019-04-19T07:06:02.031Z,13.83
2019-04-19T07:08:59.683Z,12.50
2019-04-19T07:11:11.624Z,13.60
2019-04-19T07:13:32.773Z,12.80
2019-04-19T07:18:38.113Z,14.00
2019-04-19T07:21:16.288Z,13.00
2019-04-19T07:23:45.083Z,13.13
2019-04-19T07:26:20.342Z,13.60
2019-04-19T07:28:33.230Z,12.10
2019-04-19T07:31:03.510Z,12.20
2019-04-19T07:33:44.178Z,12.60
2019-04-19T07:36:27.025Z,13.03
2019-04-19T07:38:53.403Z,12.70
2019-04-19T07:41:21.500Z,12.60
2019-04-19T07:44:19.668Z,12.93
2019-04-19T07:47:06.623Z,13.00
2019-04-19T07:49:23.328Z,12.07
2019-04-19T07:52:02.634Z,12.37
2019-04-19T07:54:28.861Z,13.27
2019-04-19T07:57:22.648Z,13.40
2019-04-19T07:59:49.114Z,11.63
2019-04-19T08:04:58.750Z,12.60
2019-04-19T08:07:32.318Z,10.47
2019-04-19T08:09:58.544Z,11.00
2019-04-19T08:12:25.779Z,11.80
2019-04-19T08:27:21.670Z,10.70
2019-04-19T08:29:51.252Z,12.30
2019-04-19T08:32:13.687Z,9.93
2019-04-19T08:34:43.375Z,9.77
2019-04-19T08:37:23.903Z,9.40
2019-04-19T08:39:58.508Z,8.77
2019-04-19T08:42:35.719Z,8.90
2019-04-19T08:44:57.717Z,9.10
2019-04-19T08:47:42.390Z,8.83
2019-04-19T08:50:34.945Z,7.90
2019-04-19T08:53:24.311Z,8.13
2019-04-19T08:55:58.228Z,7.70
2019-04-19T08:58:23.864Z,6.27
2019-04-19T09:01:07.612Z,7.23
